Time;durP1;ratioP1;P1;durP2;ratioP2;P2;SDS_P1;SDS_P2;PMS_P1;PMS_P2;Temp;Humidity;BMP_temperature;BMP_pressure;BME280_temperature;BME280_humidity;BME280_pressure;Samples;Min_cycle;Max_cycle;Signal;HPM_P1;HPM_P2
2021/01/19 06:01:33;;;;;;;1999.90;999.90;;;0.90;99.90;;;;;;5033327;27;2967375;-49
2021/01/19 06:04:01;;;;;;;1999.90;999.90;;;0.90;99.90;;;;;;5127250;28;20190;-49
2021/01/19 06:06:28;;;;;;;1999.90;999.90;;;0.90;99.90;;;;;;5118427;27;20539;-48
2021/01/19 06:08:59;;;;;;;1999.90;999.90;;;0.90;99.90;;;;;;5108306;28;20408;-48
2021/01/19 06:11:26;;;;;;;1999.90;999.90;;;1.00;99.90;;;;;;5108054;28;20402;-48
2021/01/19 06:13:52;;;;;;;1999.90;999.90;;;1.00;99.90;;;;;;5108009;28;20414;-48
2021/01/19 06:16:22;;;;;;;1999.90;999.90;;;0.90;99.90;;;;;;5105484;28;20429;-48
2021/01/19 06:18:49;;;;;;;1999.90;999.90;;;0.90;99.90;;;;;;5107577;28;20413;-48
2021/01/19 06:21:34;;;;;;;1999.90;999.90;;;1.00;99.90;;;;;;5106536;28;20526;-48
2021/01/19 06:24:01;;;;;;;1999.90;999.90;;;1.00;99.90;;;;;;5106474;28;20422;-48
2021/01/19 06:26:26;;;;;;;1999.90;999.90;;;0.90;99.90;;;;;;5107195;28;20435;-48
2021/01/19 06:28:52;;;;;;;1999.90;999.90;;;0.90;99.90;;;;;;5106433;28;20461;-51
2021/01/19 06:31:22;;;;;;;1999.90;999.90;;;0.90;99.90;;;;;;5107378;28;20248;-48
2021/01/19 06:33:50;;;;;;;1999.90;999.90;;;0.90;99.90;;;;;;5107599;28;20185;-48
2021/01/19 06:36:17;;;;;;;1999.90;999.90;;;0.90;99.90;;;;;;5107401;28;20497;-48
2021/01/19 06:38:48;;;;;;;1999.90;999.90;;;0.80;99.90;;;;;;5106227;28;20449;-48
2021/01/19 06:41:18;;;;;;;1999.90;999.90;;;0.80;99.90;;;;;;5107433;28;20486;-48
2021/01/19 06:43:50;;;;;;;1999.90;999.90;;;0.80;99.90;;;;;;5093523;28;20470;-48
2021/01/19 17:50:37;;;;;;;1999.90;999.90;;;1.40;99.90;;;;;;5105331;27;20569;-47
2021/01/19 17:53:03;;;;;;;1999.90;999.90;;;1.40;99.90;;;;;;5104696;28;20513;-47
2021/01/19 17:55:30;;;;;;;1999.90;999.90;;;1.40;99.90;;;;;;5106642;28;20187;-47
2021/01/19 17:57:57;;;;;;;1999.90;999.90;;;1.40;99.90;;;;;;5105808;28;20452;-47
2021/01/19 18:00:23;;;;;;;1999.90;999.90;;;1.40;99.90;;;;;;5106945;28;20438;-47
2021/01/19 18:02:49;;;;;;;1999.90;999.90;;;1.40;99.90;;;;;;5107191;28;20413;-47
2021/01/19 18:05:15;;;;;;;1999.90;999.90;;;1.40;99.90;;;;;;5107571;27;20544;-48
2021/01/19 18:07:41;;;;;;;1999.90;999.90;;;1.40;99.90;;;;;;5106064;28;20272;-47
2021/01/19 18:10:07;;;;;;;1999.90;999.90;;;1.40;99.90;;;;;;5107803;28;20464;-47
2021/01/19 18:12:33;;;;;;;1999.90;999.90;;;1.50;99.90;;;;;;5107995;28;20981;-47
2021/01/19 18:14:59;;;;;;;1999.90;999.90;;;1.50;99.90;;;;;;5104630;28;20440;-47
2021/01/19 18:17:25;;;;;;;1999.90;999.90;;;1.50;99.90;;;;;;5099130;28;20200;-47
2021/01/19 18:19:51;;;;;;;1999.90;999.90;;;1.50;99.90;;;;;;5116083;28;20839;-47
2021/01/19 18:22:16;;;;;;;1999.90;999.90;;;1.50;99.90;;;;;;5102242;28;20274;-47
2021/01/19 18:24:47;;;;;;;1999.90;999.90;;;1.50;99.90;;;;;;5103077;28;20705;-47
2021/01/19 18:27:13;;;;;;;1999.90;999.90;;;1.50;99.90;;;;;;5100901;28;20218;-47
2021/01/19 18:29:40;;;;;;;1999.90;999.90;;;1.50;99.90;;;;;;5106858;28;20825;-47
2021/01/19 18:32:06;;;;;;;1999.90;999.90;;;1.50;99.90;;;;;;5106456;28;20710;-47
2021/01/19 18:34:33;;;;;;;1999.90;999.90;;;1.60;99.90;;;;;;5097800;28;20495;-47
2021/01/19 18:37:04;;;;;;;1999.90;999.90;;;1.50;99.90;;;;;;5107023;28;20505;-47
2021/01/19 18:39:36;;;;;;;1999.90;999.90;;;1.50;99.90;;;;;;5105180;28;20667;-47
2021/01/19 18:42:07;;;;;;;1999.90;999.90;;;1.50;99.90;;;;;;5103073;28;20532;-46
2021/01/19 18:44:33;;;;;;;1999.90;999.90;;;1.50;99.90;;;;;;5105510;28;20449;-46
2021/01/19 18:46:59;;;;;;;1999.90;999.90;;;1.50;99.90;;;;;;5100865;28;20541;-47
2021/01/19 18:49:26;;;;;;;1999.90;999.90;;;1.60;99.90;;;;;;5102612;28;21184;-46
2021/01/19 18:51:59;;;;;;;1999.90;999.90;;;1.60;99.90;;;;;;5105184;28;20853;-56
2021/01/19 18:54:26;;;;;;;1999.90;999.90;;;1.60;99.90;;;;;;5086053;28;20425;-47
2021/01/19 18:56:53;;;;;;;1999.90;999.90;;;1.50;99.90;;;;;;5102953;28;20461;-47
2021/01/19 18:59:18;;;;;;;1999.90;999.90;;;1.60;99.90;;;;;;5104040;28;20459;-47
2021/01/19 19:01:44;;;;;;;1999.90;999.90;;;1.60;99.90;;;;;;5089437;28;20445;-47
2021/01/19 19:04:11;;;;;;;1999.90;999.90;;;1.60;99.90;;;;;;5092553;28;20189;-47
2021/01/19 19:06:37;;;;;;;1999.90;999.90;;;1.60;99.90;;;;;;5090198;28;20207;-47
2021/01/19 19:09:03;;;;;;;1999.90;999.90;;;1.60;99.90;;;;;;5086282;28;20468;-47
2021/01/19 19:11:33;;;;;;;1999.90;999.90;;;1.70;99.90;;;;;;5092972;28;20211;-47
2021/01/19 19:14:00;;;;;;;1999.90;999.90;;;1.70;99.90;;;;;;5090769;28;20954;-47
2021/01/19 19:16:31;;;;;;;1999.90;999.90;;;1.60;99.90;;;;;;5091185;28;20456;-47
2021/01/19 19:18:57;;;;;;;1999.90;999.90;;;1.60;99.90;;;;;;5091059;28;20488;-46
2021/01/19 19:21:24;;;;;;;1999.90;999.90;;;1.60;99.90;;;;;;5079753;28;21271;-47
2021/01/19 19:23:50;;;;;;;1999.90;999.90;;;1.60;99.90;;;;;;5079380;28;20450;-47
2021/01/19 19:26:16;;;;;;;1999.90;999.90;;;1.60;99.90;;;;;;5082781;28;20462;-46
2021/01/19 19:28:43;;;;;;;1999.90;999.90;;;1.60;99.90;;;;;;5087971;28;20472;-47
2021/01/19 19:31:09;;;;;;;1999.90;999.90;;;1.70;99.90;;;;;;5089868;28;20283;-47
2021/01/19 19:33:36;;;;;;;1999.90;999.90;;;1.60;99.90;;;;;;5088545;28;21369;-47
2021/01/19 19:36:03;;;;;;;1999.90;999.90;;;1.70;99.90;;;;;;5085972;28;20473;-47
2021/01/19 19:38:28;;;;;;;1999.90;999.90;;;1.60;99.90;;;;;;5086398;28;20437;-47
2021/01/19 19:40:54;;;;;;;1999.90;999.90;;;1.60;99.90;;;;;;5086459;28;20938;-47
2021/01/19 19:43:20;;;;;;;1999.90;999.90;;;1.70;99.90;;;;;;5087778;28;20188;-47
2021/01/19 19:45:45;;;;;;;1999.90;999.90;;;1.70;99.90;;;;;;5085864;28;20320;-47
2021/01/19 19:48:11;;;;;;;1999.90;999.90;;;1.70;99.90;;;;;;5086228;28;20181;-46
2021/01/19 19:50:37;;;;;;;1999.90;999.90;;;1.70;99.90;;;;;;5085311;28;20555;-47
2021/01/19 19:53:03;;;;;;;1999.90;999.90;;;1.70;99.90;;;;;;5083710;28;20183;-47
2021/01/19 19:55:28;;;;;;;1999.90;999.90;;;1.70;99.90;;;;;;5082226;28;20188;-46
2021/01/19 19:57:54;;;;;;;1999.90;999.90;;;1.70;99.90;;;;;;5082624;28;20540;-47
2021/01/19 20:00:20;;;;;;;1999.90;999.90;;;1.70;99.90;;;;;;5087611;28;20202;-47
2021/01/19 20:02:45;;;;;;;1999.90;999.90;;;1.70;99.90;;;;;;5081387;28;20194;-46
2021/01/19 20:05:12;;;;;;;1999.90;999.90;;;1.70;99.90;;;;;;5084964;28;20196;-47
2021/01/19 20:07:41;;;;;;;1999.90;999.90;;;1.70;99.90;;;;;;5084083;28;20250;-47
2021/01/19 20:10:08;;;;;;;1999.90;999.90;;;1.70;99.90;;;;;;5087524;28;20465;-46
2021/01/19 20:12:33;;;;;;;1999.90;999.90;;;1.70;99.90;;;;;;5086567;28;20422;-46
2021/01/19 20:14:59;;;;;;;1999.90;999.90;;;1.70;99.90;;;;;;5085873;28;20429;-47
2021/01/19 20:17:25;;;;;;;1999.90;999.90;;;1.70;99.90;;;;;;5085833;28;20569;-46
2021/01/19 20:19:50;;;;;;;1999.90;999.90;;;1.80;99.90;;;;;;5087477;28;20283;-46
2021/01/19 20:22:16;;;;;;;1999.90;999.90;;;1.80;99.90;;;;;;5087711;28;20302;-47
2021/01/19 20:24:41;;;;;;;1999.90;999.90;;;1.80;99.90;;;;;;5083599;28;20596;-46
2021/01/19 20:27:07;;;;;;;1999.90;999.90;;;1.70;99.90;;;;;;5085749;28;20236;-46
2021/01/19 20:29:33;;;;;;;1999.90;999.90;;;1.80;99.90;;;;;;5087778;28;20215;-46
2021/01/19 20:31:59;;;;;;;1999.90;999.90;;;1.70;99.90;;;;;;5087155;28;20683;-46
2021/01/19 20:34:25;;;;;;;1999.90;999.90;;;1.80;99.90;;;;;;5089045;28;20203;-47
2021/01/19 20:37:01;;;;;;;1999.90;999.90;;;1.70;99.90;;;;;;5088190;28;20462;-46
2021/01/19 20:39:27;;;;;;;1999.90;999.90;;;1.70;99.90;;;;;;5087726;28;20450;-45
2021/01/19 20:41:53;;;;;;;1999.90;999.90;;;1.70;99.90;;;;;;5087760;28;20450;-45
2021/01/19 20:44:19;;;;;;;1999.90;999.90;;;1.70;99.90;;;;;;5088915;28;20410;-45
2021/01/19 20:46:46;;;;;;;1999.90;999.90;;;1.80;99.90;;;;;;5086987;28;20517;-45
2021/01/19 20:49:12;;;;;;;1999.90;999.90;;;1.80;99.90;;;;;;5087437;28;20580;-45
2021/01/19 20:51:42;;;;;;;1999.90;999.90;;;1.80;99.90;;;;;;5087398;28;20434;-46
2021/01/19 20:54:09;;;;;;;1999.90;999.90;;;1.80;99.90;;;;;;5088381;28;21010;-46
2021/01/19 20:56:39;;;;;;;1999.90;999.90;;;1.80;99.90;;;;;;5084518;28;20454;-45
2021/01/19 20:59:05;;;;;;;1999.90;999.90;;;1.90;99.90;;;;;;5088049;28;20410;-45
2021/01/19 21:01:32;;;;;;;1999.90;999.90;;;1.90;99.90;;;;;;5085822;28;20442;-46
2021/01/19 21:04:01;;;;;;;1999.90;999.90;;;1.90;99.90;;;;;;5086650;28;20430;-45
2021/01/19 21:06:27;;;;;;;1999.90;999.90;;;2.00;99.90;;;;;;5086361;28;20457;-45
2021/01/19 21:08:53;;;;;;;1999.90;999.90;;;2.00;99.90;;;;;;5086702;28;20499;-45
2021/01/19 21:11:19;;;;;;;1999.90;999.90;;;2.00;99.90;;;;;;5086653;28;20497;-46
2021/01/19 21:13:49;;;;;;;1999.90;999.90;;;2.00;99.90;;;;;;5087465;28;21040;-45
2021/01/19 21:16:15;;;;;;;1999.90;999.90;;;2.00;99.90;;;;;;5086755;28;20450;-45
2021/01/19 21:18:42;;;;;;;1999.90;999.90;;;2.10;99.90;;;;;;5084023;28;21000;-45
2021/01/19 21:21:08;;;;;;;1999.90;999.90;;;2.00;99.90;;;;;;5078257;28;20491;-46
2021/01/19 21:23:34;;;;;;;1999.90;999.90;;;2.00;99.90;;;;;;5071831;28;20575;-45
2021/01/19 21:26:00;;;;;;;1999.90;999.90;;;2.10;99.90;;;;;;5086135;28;20466;-45
2021/01/19 21:28:26;;;;;;;1999.90;999.90;;;2.00;99.90;;;;;;5088026;28;20416;-45
2021/01/19 21:30:52;;;;;;;1999.90;999.90;;;2.00;99.90;;;;;;5086165;28;20452;-45
2021/01/19 21:33:17;;;;;;;1999.90;999.90;;;2.00;99.90;;;;;;5085478;28;20436;-45
2021/01/19 21:35:43;;;;;;;1999.90;999.90;;;2.00;99.90;;;;;;5066013;28;20228;-45
2021/01/19 21:38:13;;;;;;;1999.90;999.90;;;2.00;99.90;;;;;;5068828;28;20184;-45
2021/01/19 21:40:40;;;;;;;1999.90;999.90;;;2.00;99.90;;;;;;5087132;28;20187;-45
2021/01/19 21:43:06;;;;;;;1999.90;999.90;;;2.00;99.90;;;;;;5086151;28;20459;-45
2021/01/19 21:45:31;;;;;;;1999.90;999.90;;;2.00;99.90;;;;;;5102207;28;20509;-45
2021/01/19 21:47:57;;;;;;;1999.90;999.90;;;2.00;99.90;;;;;;5089341;28;20987;-45
2021/01/19 21:50:23;;;;;;;1999.90;999.90;;;2.10;99.90;;;;;;5087935;28;20212;-45
2021/01/19 21:52:49;;;;;;;1999.90;999.90;;;2.10;99.90;;;;;;5086789;28;20183;-46
2021/01/19 21:55:14;;;;;;;1999.90;999.90;;;2.10;99.90;;;;;;5087386;28;20453;-45
2021/01/19 21:57:40;;;;;;;1999.90;999.90;;;2.20;99.90;;;;;;5087351;28;20238;-45
2021/01/19 22:00:07;;;;;;;1999.90;999.90;;;2.20;99.90;;;;;;5087666;28;20184;-45
2021/01/19 22:02:36;;;;;;;1999.90;999.90;;;2.20;99.90;;;;;;5087591;28;20439;-45
2021/01/19 22:05:03;;;;;;;1999.90;999.90;;;2.20;99.90;;;;;;5087291;28;20413;-45
2021/01/19 22:07:29;;;;;;;1999.90;999.90;;;2.20;99.90;;;;;;5087022;28;20535;-45
2021/01/19 22:09:55;;;;;;;1999.90;999.90;;;2.10;99.90;;;;;;5088099;28;20959;-45
2021/01/19 22:12:21;;;;;;;1999.90;999.90;;;2.10;99.90;;;;;;5086458;28;20665;-46
2021/01/19 22:14:47;;;;;;;1999.90;999.90;;;2.20;99.90;;;;;;5086536;28;20412;-46
2021/01/19 22:17:13;;;;;;;1999.90;999.90;;;2.10;99.90;;;;;;5081647;28;20228;-46
2021/01/19 22:19:39;;;;;;;1999.90;999.90;;;2.10;99.90;;;;;;5084682;28;20199;-47
2021/01/19 22:22:05;;;;;;;1999.90;999.90;;;2.10;99.90;;;;;;5083856;28;20438;-46
2021/01/19 22:24:31;;;;;;;1999.90;999.90;;;2.10;99.90;;;;;;5083814;28;20195;-47
2021/01/19 22:26:56;;;;;;;1999.90;999.90;;;2.10;99.90;;;;;;5083446;28;20210;-47
2021/01/19 22:29:22;;;;;;;1999.90;999.90;;;2.10;99.90;;;;;;5083195;28;20209;-46
2021/01/19 22:31:49;;;;;;;1999.90;999.90;;;2.10;99.90;;;;;;5085463;28;20183;-46
2021/01/19 22:34:15;;;;;;;1999.90;999.90;;;2.10;99.90;;;;;;5086000;28;20237;-47
2021/01/19 22:36:40;;;;;;;1999.90;999.90;;;2.10;99.90;;;;;;5087006;28;20450;-46
2021/01/19 22:39:06;;;;;;;1999.90;999.90;;;2.10;99.90;;;;;;5087780;28;20252;-46
2021/01/19 22:41:32;;;;;;;1999.90;999.90;;;2.10;99.90;;;;;;5089971;28;20669;-47
2021/01/19 22:43:57;;;;;;;1999.90;999.90;;;2.10;99.90;;;;;;5089868;28;20195;-47
2021/01/19 22:46:23;;;;;;;1999.90;999.90;;;2.10;99.90;;;;;;5089821;28;20220;-47
2021/01/19 22:48:49;;;;;;;1999.90;999.90;;;2.10;99.90;;;;;;5085361;28;20205;-46
2021/01/19 22:51:15;;;;;;;1999.90;999.90;;;2.10;99.90;;;;;;5089274;28;20811;-46
2021/01/19 22:53:40;;;;;;;1999.90;999.90;;;2.10;99.90;;;;;;5085524;28;20255;-47
2021/01/19 22:56:06;;;;;;;1999.90;999.90;;;2.20;99.90;;;;;;5091184;28;20210;-46
2021/01/19 22:58:32;;;;;;;1999.90;999.90;;;2.20;99.90;;;;;;5089148;28;20446;-47
